Time;durP1;ratioP1;P1;durP2;ratioP2;P2;SDS_P1;SDS_P2;PMS_P1;PMS_P2;Temp;Humidity;BMP_temperature;BMP_pressure;BME280_temperature;BME280_humidity;BME280_pressure;Samples;Min_cycle;Max_cycle;Signal;HPM_P1;HPM_P2
2022/05/20 00:01:52;;;;;;;12.07;7.07;;;17.50;99.90;;;;;;5055906;28;20373;-88
2022/05/20 00:04:17;;;;;;;9.85;7.50;;;17.50;99.90;;;;;;5052044;28;20024;-88
2022/05/20 00:06:43;;;;;;;13.68;7.55;;;17.50;99.90;;;;;;5052463;28;20558;-87
2022/05/20 00:09:09;;;;;;;12.65;7.18;;;17.50;99.90;;;;;;5044189;28;20500;-88
2022/05/20 00:11:34;;;;;;;11.65;7.90;;;17.50;99.90;;;;;;5049829;28;20059;-88
2022/05/20 00:14:01;;;;;;;13.30;6.82;;;17.50;99.90;;;;;;5047548;28;20035;-88
2022/05/20 00:16:27;;;;;;;10.48;7.50;;;17.50;99.90;;;;;;5049126;28;20537;-88
2022/05/20 00:18:52;;;;;;;15.02;7.70;;;17.50;99.90;;;;;;5062375;28;20036;-89
2022/05/20 00:21:18;;;;;;;11.60;7.35;;;17.60;99.90;;;;;;5050284;28;20377;-88
2022/05/20 00:23:43;;;;;;;8.82;6.70;;;17.70;99.90;;;;;;5052200;28;20028;-86
2022/05/20 00:26:09;;;;;;;8.43;6.43;;;17.70;99.90;;;;;;5067684;28;20047;-89
2022/05/20 00:28:34;;;;;;;7.75;6.15;;;17.70;99.90;;;;;;5048480;28;20098;-88
2022/05/20 00:31:04;;;;;;;12.50;6.65;;;17.70;99.90;;;;;;5052454;28;20028;-88
2022/05/20 00:33:31;;;;;;;11.32;6.53;;;17.70;99.90;;;;;;5042403;28;20463;-88
2022/05/20 00:35:56;;;;;;;10.45;6.80;;;17.70;99.90;;;;;;5050375;28;20400;-89
2022/05/20 00:38:22;;;;;;;11.68;6.53;;;17.70;99.90;;;;;;5051959;28;20021;-89
2022/05/20 00:40:51;;;;;;;10.70;6.95;;;17.70;99.90;;;;;;5050796;28;20044;-89
2022/05/20 00:43:27;;;;;;;10.90;6.10;;;17.70;99.90;;;;;;5050008;28;20473;-88
2022/05/20 00:46:02;;;;;;;10.52;6.20;;;17.70;99.90;;;;;;5050898;28;20393;-89
2022/05/20 00:48:29;;;;;;;9.13;5.82;;;17.80;99.90;;;;;;5046114;28;20113;-89
2022/05/20 00:51:00;;;;;;;11.77;6.40;;;17.80;99.90;;;;;;5048392;28;20021;-88
2022/05/20 00:53:32;;;;;;;12.75;6.40;;;17.70;99.90;;;;;;5069312;28;20059;-89
2022/05/20 00:55:57;;;;;;;9.15;5.68;;;17.80;99.90;;;;;;5049236;28;21159;-88
2022/05/20 00:58:27;;;;;;;9.00;5.97;;;17.80;99.90;;;;;;5068107;28;20071;-89
2022/05/20 01:00:54;;;;;;;8.68;5.60;;;17.80;99.90;;;;;;5050208;28;20024;-86
2022/05/20 01:03:24;;;;;;;5.93;5.18;;;17.80;99.90;;;;;;5050341;28;20033;-89
2022/05/20 01:05:51;;;;;;;8.07;4.97;;;17.70;99.90;;;;;;5051430;28;20020;-88
2022/05/20 01:08:20;;;;;;;6.28;5.38;;;17.80;99.90;;;;;;5042550;28;20021;-88
2022/05/20 01:10:46;;;;;;;7.90;5.43;;;17.80;99.90;;;;;;5069043;28;20032;-88
2022/05/20 01:13:14;;;;;;;6.10;5.30;;;17.70;99.90;;;;;;5067903;28;20550;-89
2022/05/20 01:15:39;;;;;;;10.98;6.45;;;17.80;99.90;;;;;;5050694;28;20044;-89
2022/05/20 01:18:06;;;;;;;8.90;6.03;;;17.80;99.90;;;;;;5050522;28;20032;-89
2022/05/20 01:20:35;;;;;;;9.00;5.35;;;17.70;99.90;;;;;;5058194;28;20021;-88
2022/05/20 01:23:07;;;;;;;7.78;5.50;;;17.80;99.90;;;;;;5050585;28;20430;-86
2022/05/20 01:25:33;;;;;;;7.40;5.55;;;17.70;99.90;;;;;;5050479;28;20066;-89
2022/05/20 01:27:59;;;;;;;9.25;5.70;;;17.70;99.90;;;;;;5050537;28;20028;-88
2022/05/20 01:30:27;;;;;;;7.28;6.05;;;17.70;99.90;;;;;;5054106;28;20025;-89
2022/05/20 01:32:53;;;;;;;10.88;6.13;;;17.70;99.90;;;;;;5044325;28;20531;-88
2022/05/20 01:35:30;;;;;;;9.00;5.38;;;17.70;99.90;;;;;;5049730;28;20028;-89
2022/05/20 01:37:56;;;;;;;6.53;5.60;;;17.70;99.90;;;;;;5050398;28;20459;-89
2022/05/20 01:40:22;;;;;;;8.77;5.95;;;17.70;99.90;;;;;;5051356;28;20029;-89
2022/05/20 01:42:59;;;;;;;10.07;5.93;;;17.70;99.90;;;;;;5049249;28;20037;-88
2022/05/20 01:45:39;;;;;;;10.65;5.60;;;17.70;99.90;;;;;;5066233;28;20112;-88
2022/05/20 01:48:32;;;;;;;9.13;5.20;;;17.70;99.90;;;;;;5068595;28;20056;-89
2022/05/20 01:50:57;;;;;;;;;;;17.70;99.90;;;;;;5051522;28;20025;-88
2022/05/20 01:53:47;;;;;;;5.63;5.03;;;17.70;99.90;;;;;;5068097;28;19916;-89
2022/05/20 01:56:21;;;;;;;8.65;5.00;;;17.70;99.90;;;;;;5065992;28;20040;-88
2022/05/20 01:59:05;;;;;;;8.77;5.35;;;17.70;99.90;;;;;;5050067;28;20035;-88
2022/05/20 02:02:14;;;;;;;6.72;4.78;;;17.60;99.90;;;;;;5051961;28;20027;-88
2022/05/20 02:04:48;;;;;;;6.95;5.82;;;17.60;99.90;;;;;;4985990;28;20033;-88
2022/05/20 02:07:20;;;;;;;7.88;5.07;;;17.60;99.90;;;;;;5003254;28;20124;-89
2022/05/20 02:09:56;;;;;;;6.80;5.15;;;17.60;99.90;;;;;;5039549;28;20039;-88
2022/05/20 02:12:25;;;;;;;5.88;5.18;;;17.60;99.90;;;;;;5067437;28;20037;-87
2022/05/20 02:15:06;;;;;;;7.18;4.88;;;17.60;99.90;;;;;;5068477;28;20028;-88
2022/05/20 02:17:37;;;;;;;6.10;4.60;;;17.60;99.90;;;;;;5071943;28;20637;-88
2022/05/20 02:20:09;;;;;;;6.47;4.43;;;17.60;99.90;;;;;;5069388;28;20029;-89
2022/05/20 02:22:39;;;;;;;12.23;5.63;;;17.60;99.90;;;;;;5073196;28;20512;-88
2022/05/20 02:25:09;;;;;;;10.25;5.28;;;17.60;99.90;;;;;;5070416;28;20306;-89
2022/05/20 02:27:41;;;;;;;6.32;4.97;;;17.60;99.90;;;;;;5066648;28;20106;-88
2022/05/20 02:30:07;;;;;;;7.40;5.25;;;17.60;99.90;;;;;;5052673;28;20025;-89
2022/05/20 02:32:39;;;;;;;8.02;6.15;;;17.60;99.90;;;;;;5055594;28;20032;-89
2022/05/20 02:35:05;;;;;;;8.55;5.47;;;17.60;99.90;;;;;;5070966;28;20024;-90
2022/05/20 02:37:36;;;;;;;7.68;4.80;;;17.60;99.90;;;;;;5048420;28;20040;-89
2022/05/20 02:40:03;;;;;;;8.07;5.93;;;17.60;99.90;;;;;;5052421;28;20025;-89
2022/05/20 02:42:29;;;;;;;5.75;4.95;;;17.60;99.90;;;;;;5070875;28;20032;-89
2022/05/20 02:44:59;;;;;;;7.93;6.20;;;17.60;99.90;;;;;;5068383;28;20187;-89
2022/05/20 02:47:26;;;;;;;13.68;6.65;;;17.60;99.90;;;;;;5071869;28;20027;-87
2022/05/20 02:49:52;;;;;;;10.77;5.97;;;17.60;99.90;;;;;;5054147;28;20028;-88
2022/05/20 02:52:17;;;;;;;11.95;6.78;;;17.60;99.90;;;;;;5053792;28;20029;-88
2022/05/20 02:54:43;;;;;;;12.85;6.47;;;17.60;99.90;;;;;;5053972;28;20035;-88
2022/05/20 02:57:09;;;;;;;13.02;6.43;;;17.60;99.90;;;;;;5051231;28;20049;-89
2022/05/20 03:05:03;;;;;;;8.18;6.20;;;17.60;99.90;;;;;;5070502;28;20031;-88
2022/05/20 03:07:28;;;;;;;8.00;6.55;;;17.60;99.90;;;;;;5053147;28;20407;-89
2022/05/20 03:09:54;;;;;;;8.48;6.20;;;17.60;99.90;;;;;;5070300;28;20096;-88
2022/05/20 03:12:19;;;;;;;7.20;5.93;;;17.60;99.90;;;;;;5051727;28;20408;-89
2022/05/20 03:14:45;;;;;;;7.55;5.85;;;17.60;99.90;;;;;;5071565;28;20396;-88
2022/05/20 03:17:11;;;;;;;8.02;6.57;;;17.60;99.90;;;;;;5051627;28;20032;-88
2022/05/20 03:19:37;;;;;;;12.07;6.45;;;17.60;99.90;;;;;;5051781;28;20025;-88
2022/05/20 03:22:05;;;;;;;7.60;6.13;;;17.50;99.90;;;;;;5067579;28;20090;-88
2022/05/20 03:24:31;;;;;;;10.77;6.32;;;17.50;99.90;;;;;;5063681;28;20460;-88
2022/05/20 03:26:57;;;;;;;13.75;6.82;;;17.60;99.90;;;;;;5049528;28;20159;-89
2022/05/20 03:29:24;;;;;;;8.35;6.22;;;17.50;99.90;;;;;;5064161;28;20032;-88
2022/05/20 03:31:50;;;;;;;8.70;6.20;;;17.50;99.90;;;;;;5049433;28;20032;-87
2022/05/20 03:34:17;;;;;;;8.50;5.90;;;17.50;99.90;;;;;;5063327;28;20043;-88
2022/05/20 03:36:45;;;;;;;10.00;5.97;;;17.50;99.90;;;;;;5069993;28;20036;-88
2022/05/20 03:39:15;;;;;;;10.23;5.85;;;17.50;99.90;;;;;;5053555;28;20024;-88
2022/05/20 03:41:41;;;;;;;9.00;5.95;;;17.50;99.90;;;;;;5045548;28;20039;-89
2022/05/20 03:44:08;;;;;;;9.63;6.75;;;17.40;99.90;;;;;;5068712;28;20546;-89
2022/05/20 03:46:43;;;;;;;9.73;6.30;;;17.40;99.90;;;;;;5052115;28;20024;-89
2022/05/20 03:49:09;;;;;;;9.55;5.40;;;17.40;99.90;;;;;;5052297;28;20436;-88
2022/05/20 03:51:35;;;;;;;12.57;7.03;;;17.40;99.90;;;;;;5053997;28;20028;-89
2022/05/20 03:54:02;;;;;;;10.88;6.57;;;17.40;99.90;;;;;;5051630;28;20039;-88
2022/05/20 03:56:27;;;;;;;9.35;6.38;;;17.40;99.90;;;;;;5069403;28;20036;-89
2022/05/20 03:58:53;;;;;;;8.95;6.15;;;17.40;99.90;;;;;;5050873;28;20489;-89
2022/05/20 04:04:03;;;;;;;8.35;5.55;;;17.40;99.90;;;;;;5069443;28;20039;-88
2022/05/20 04:06:29;;;;;;;10.38;6.32;;;17.40;99.90;;;;;;5069552;28;20099;-88
2022/05/20 04:08:54;;;;;;;10.18;6.20;;;17.40;99.90;;;;;;5053252;28;20024;-88
2022/05/20 04:11:20;;;;;;;8.82;5.78;;;17.40;99.90;;;;;;5051897;28;20028;-88
2022/05/20 04:13:46;;;;;;;7.68;5.75;;;17.30;99.90;;;;;;5051139;28;20063;-89
2022/05/20 04:16:13;;;;;;;8.98;6.22;;;17.30;99.90;;;;;;5065909;28;20029;-87
2022/05/20 04:18:41;;;;;;;7.55;6.45;;;17.30;99.90;;;;;;5068997;28;20033;-88
2022/05/20 04:21:07;;;;;;;11.50;5.57;;;17.30;99.90;;;;;;5062982;28;20022;-88
2022/05/20 04:23:33;;;;;;;7.97;5.80;;;17.40;99.90;;;;;;5048806;28;20087;-88
2022/05/20 04:25:58;;;;;;;10.30;6.28;;;17.30;99.90;;;;;;5081565;23;20464;-87
2022/05/20 04:28:24;;;;;;;8.02;5.85;;;17.30;99.90;;;;;;5045032;28;20025;-87
2022/05/20 04:30:56;;;;;;;7.82;5.38;;;17.30;99.90;;;;;;5030762;28;20079;-87
2022/05/20 04:33:22;;;;;;;13.80;6.57;;;17.40;99.90;;;;;;5031763;28;20495;-87
2022/05/20 04:35:47;;;;;;;8.48;6.47;;;17.40;99.90;;;;;;5029787;28;20036;-87
2022/05/20 04:38:13;;;;;;;13.18;6.55;;;17.40;99.90;;;;;;5010554;28;20030;-85
2022/05/20 04:40:38;;;;;;;10.70;6.60;;;17.50;99.90;;;;;;5011268;28;20396;-86
2022/05/20 04:48:34;;;;;;;8.60;7.05;;;17.70;99.90;;;;;;5012341;28;20077;-87
2022/05/20 04:50:59;;;;;;;9.80;7.07;;;17.70;99.90;;;;;;5010737;28;20022;-87
2022/05/20 04:56:10;;;;;;;10.88;6.32;;;17.70;99.90;;;;;;5006603;28;20037;-87
2022/05/20 04:58:35;;;;;;;13.63;7.80;;;17.60;99.90;;;;;;5019020;28;20029;-87
2022/05/20 05:01:01;;;;;;;10.00;7.25;;;17.70;99.90;;;;;;5017940;28;20472;-87
2022/05/20 05:03:27;;;;;;;13.65;8.30;;;17.70;99.90;;;;;;5010784;28;20547;-86
2022/05/20 05:05:52;;;;;;;13.90;8.07;;;17.80;99.90;;;;;;5006663;28;20492;-87
2022/05/20 05:08:18;;;;;;;13.20;7.45;;;17.90;99.90;;;;;;5006945;28;20097;-87
2022/05/20 05:10:45;;;;;;;9.95;7.75;;;18.00;99.90;;;;;;5015863;28;20025;-87
2022/05/20 05:13:12;;;;;;;11.38;7.80;;;18.10;99.90;;;;;;5027808;28;20030;-87
2022/05/20 05:15:39;;;;;;;11.73;7.82;;;18.20;99.90;;;;;;5010468;28;20018;-87
2022/05/20 05:18:14;;;;;;;11.18;8.50;;;18.20;99.90;;;;;;5011236;28;20049;-86
2022/05/20 05:20:41;;;;;;;12.10;9.00;;;18.30;99.90;;;;;;5012228;28;20145;-87
2022/05/20 05:23:07;;;;;;;13.35;9.15;;;18.40;99.90;;;;;;5012127;28;20014;-87
2022/05/20 05:25:35;;;;;;;15.80;8.75;;;18.30;99.90;;;;;;5007797;28;20473;-87
2022/05/20 05:28:01;;;;;;;14.40;9.38;;;18.30;99.90;;;;;;5010649;28;20034;-87
2022/05/20 05:30:30;;;;;;;13.20;8.13;;;18.30;99.90;;;;;;5007087;28;20536;-86
2022/05/20 05:32:56;;;;;;;9.90;7.85;;;18.30;99.90;;;;;;5004451;28;21602;-86
2022/05/20 05:35:25;;;;;;;13.55;8.77;;;18.30;99.90;;;;;;5004122;28;20032;-85
2022/05/20 05:37:53;;;;;;;14.18;8.40;;;18.30;99.90;;;;;;5012244;28;20063;-87
2022/05/20 05:40:30;;;;;;;16.55;13.45;;;18.40;99.90;;;;;;4995981;28;20423;-87
2022/05/20 05:42:56;;;;;;;12.48;9.82;;;18.30;99.90;;;;;;4992314;28;20380;-87
2022/05/20 05:45:24;;;;;;;17.58;9.85;;;18.30;99.90;;;;;;5014761;28;20033;-88
2022/05/20 05:47:59;;;;;;;14.18;10.18;;;18.30;99.90;;;;;;5014609;28;20089;-88
2022/05/20 05:50:25;;;;;;;13.52;10.20;;;18.30;99.90;;;;;;5015270;28;20029;-87
2022/05/20 05:53:07;;;;;;;13.05;10.38;;;18.40;99.90;;;;;;5005724;28;20026;-87
2022/05/20 05:55:33;;;;;;;14.18;10.13;;;18.50;99.90;;;;;;5019003;28;20507;-88
2022/05/20 05:57:59;;;;;;;17.50;12.70;;;18.60;99.90;;;;;;5014680;28;20025;-88
2022/05/20 06:00:25;;;;;;;17.00;11.40;;;18.60;99.90;;;;;;5011475;28;20030;-87
2022/05/20 06:02:52;;;;;;;16.38;11.43;;;18.60;99.90;;;;;;5014841;28;20040;-87
2022/05/20 06:05:18;;;;;;;14.63;10.48;;;18.60;99.90;;;;;;5002654;28;20022;-87
2022/05/20 06:07:45;;;;;;;13.15;10.73;;;18.50;99.90;;;;;;5015094;28;20029;-87
2022/05/20 06:10:11;;;;;;;12.43;10.43;;;18.60;99.90;;;;;;5012655;28;20026;-86
2022/05/20 06:12:36;;;;;;;13.20;10.63;;;18.60;99.90;;;;;;5016396;28;20032;-86
2022/05/20 06:15:07;;;;;;;12.75;10.95;;;18.70;99.90;;;;;;5013434;28;20022;-86
2022/05/20 06:17:36;;;;;;;14.57;10.30;;;18.70;99.90;;;;;;5025719;28;20036;-87
2022/05/20 06:20:03;;;;;;;15.57;10.27;;;18.70;99.90;;;;;;5011852;28;20033;-86
2022/05/20 06:22:29;;;;;;;11.68;9.82;;;18.70;99.90;;;;;;5023476;28;20599;-88
2022/05/20 06:24:54;;;;;;;13.30;10.32;;;18.60;99.90;;;;;;5009501;28;20018;-87
2022/05/20 06:27:20;;;;;;;12.82;9.52;;;18.60;99.90;;;;;;5011274;28;20257;-88
2022/05/20 06:29:47;;;;;;;10.57;9.48;;;18.60;99.90;;;;;;4999211;28;20026;-88
2022/05/20 06:32:13;;;;;;;12.98;9.95;;;18.60;99.90;;;;;;4995459;28;20153;-88
2022/05/20 06:40:10;;;;;;;10.10;8.48;;;18.80;99.90;;;;;;5017284;28;20040;-89
2022/05/20 06:42:36;;;;;;;12.98;8.63;;;18.90;99.90;;;;;;5012047;28;20021;-89
2022/05/20 06:45:02;;;;;;;16.35;8.38;;;19.00;99.90;;;;;;5033682;28;20471;-89
2022/05/20 06:47:28;;;;;;;14.55;8.30;;;19.00;99.90;;;;;;5017677;28;20025;-88
2022/05/20 06:49:53;;;;;;;14.93;8.10;;;19.20;99.90;;;;;;5034859;28;20033;-88
2022/05/20 06:52:19;;;;;;;8.15;7.22;;;19.30;99.90;;;;;;5017086;28;20444;-88
2022/05/20 06:54:44;;;;;;;14.18;7.45;;;19.40;99.90;;;;;;5035489;28;20105;-90
2022/05/20 06:57:10;;;;;;;11.65;7.05;;;19.50;99.90;;;;;;5017737;28;20033;-88
2022/05/20 06:59:36;;;;;;;8.98;6.57;;;19.70;99.90;;;;;;5016113;28;20139;-87
2022/05/20 07:02:02;;;;;;;10.68;6.47;;;19.80;99.90;;;;;;5017152;28;20056;-89
2022/05/20 07:04:31;;;;;;;11.48;6.13;;;19.90;99.90;;;;;;5035157;28;20026;-90
2022/05/20 07:06:59;;;;;;;8.98;6.63;;;19.90;99.90;;;;;;5016979;28;20029;-89
2022/05/20 07:09:25;;;;;;;8.65;6.75;;;20.10;99.90;;;;;;5015888;28;20028;-90
2022/05/20 07:11:53;;;;;;;11.60;6.65;;;20.20;99.90;;;;;;5017016;28;20101;-88
2022/05/20 07:14:19;;;;;;;7.07;5.85;;;20.40;99.90;;;;;;5017151;28;20028;-89
2022/05/20 07:16:45;;;;;;;7.97;6.45;;;20.60;99.90;;;;;;5016780;28;20021;-90
2022/05/20 07:19:11;;;;;;;9.02;6.05;;;20.80;99.90;;;;;;5017502;28;20025;-89
2022/05/20 07:21:36;;;;;;;8.32;6.18;;;21.00;99.90;;;;;;5034414;28;20029;-89
2022/05/20 07:24:04;;;;;;;9.43;5.53;;;21.10;99.90;;;;;;5017215;28;20032;-89
2022/05/20 07:26:30;;;;;;;8.00;5.60;;;21.30;99.90;;;;;;5025834;28;20369;-89
2022/05/20 07:28:56;;;;;;;7.82;5.60;;;21.50;99.90;;;;;;5017015;28;20036;-89
2022/05/20 07:31:24;;;;;;;11.18;5.57;;;21.70;99.90;;;;;;5014524;28;20033;-89
2022/05/20 07:33:50;;;;;;;10.60;6.13;;;21.90;99.90;;;;;;5014061;28;20025;-90
2022/05/20 07:36:16;;;;;;;5.80;5.30;;;22.10;99.90;;;;;;5016125;28;20021;-90
2022/05/20 07:38:43;;;;;;;10.18;5.07;;;22.20;99.90;;;;;;5011449;28;20026;-88
2022/05/20 07:41:09;;;;;;;6.47;4.60;;;22.30;99.90;;;;;;5022262;28;20058;-90
2022/05/20 07:43:35;;;;;;;8.02;5.00;;;22.50;99.90;;;;;;4994479;28;20054;-90
2022/05/20 07:46:01;;;;;;;7.40;4.90;;;22.60;99.90;;;;;;4994487;28;20034;-89
2022/05/20 07:48:27;;;;;;;10.18;5.40;;;22.70;99.90;;;;;;4994124;28;20015;-89
2022/05/20 07:51:05;;;;;;;7.88;4.85;;;22.90;99.90;;;;;;5005111;28;20061;-90
2022/05/20 07:53:36;;;;;;;13.02;4.97;;;23.00;99.90;;;;;;5013992;28;20026;-90
2022/05/20 07:56:23;;;;;;;5.78;4.55;;;23.20;99.90;;;;;;5012878;28;20484;-90
2022/05/20 07:59:14;;;;;;;5.95;4.30;;;23.40;99.90;;;;;;4994136;28;20034;-90
2022/05/20 08:01:44;;;;;;;4.63;4.10;;;23.70;99.90;;;;;;4998548;28;20030;-90
2022/05/20 08:07:02;;;;;;;9.33;4.53;;;24.20;99.90;;;;;;5015219;28;20071;-90
2022/05/20 08:09:28;;;;;;;6.93;4.60;;;24.40;99.90;;;;;;5013067;28;20049;-91
2022/05/20 08:11:56;;;;;;;8.30;4.82;;;24.60;99.90;;;;;;5016806;28;20373;-91
2022/05/20 08:14:21;;;;;;;7.15;4.50;;;24.90;99.90;;;;;;5017078;28;20040;-91
2022/05/20 08:16:47;;;;;;;5.32;4.38;;;24.90;99.90;;;;;;5017981;28;20026;-90
2022/05/20 08:19:30;;;;;;;8.52;4.22;;;24.90;99.90;;;;;;5013349;28;20076;-90
2022/05/20 08:21:56;;;;;;;8.60;4.53;;;25.00;99.90;;;;;;5013754;28;20116;-91
2022/05/20 08:24:22;;;;;;;7.55;4.47;;;25.10;99.90;;;;;;5013019;28;20052;-91
2022/05/20 08:26:51;;;;;;;6.57;4.72;;;25.40;99.90;;;;;;5013147;28;20029;-91
2022/05/20 08:29:20;;;;;;;6.88;4.00;;;25.60;99.90;;;;;;5012587;28;20092;-91
2022/05/20 08:31:52;;;;;;;9.38;4.75;;;25.70;99.90;;;;;;5012973;28;20037;-92
2022/05/20 08:34:25;;;;;;;;;;;25.70;99.90;;;;;;5030289;28;20121;-91
2022/05/20 08:36:51;;;;;;;5.90;3.97;;;25.80;99.90;;;;;;5029953;28;20363;-91
2022/05/20 08:39:20;;;;;;;10.82;4.35;;;26.00;99.90;;;;;;5013568;28;20070;-91
2022/05/20 08:41:52;;;;;;;7.95;4.20;;;26.20;99.90;;;;;;5013545;28;20022;-91
2022/05/20 08:44:27;;;;;;;9.45;5.03;;;26.50;99.90;;;;;;5013636;28;20365;-92
2022/05/20 08:47:24;;;;;;;5.90;4.05;;;26.70;99.90;;;;;;5013744;28;20124;-91
2022/05/20 08:50:47;;;;;;;4.32;3.55;;;27.00;99.90;;;;;;5013781;28;20118;-92
2022/05/20 08:53:56;;;;;;;6.57;3.90;;;27.30;99.90;;;;;;5008439;28;20060;-91
2022/05/20 09:00:01;;;;;;;7.25;3.40;;;27.60;99.90;;;;;;5003631;28;20464;-92
2022/05/20 09:03:16;;;;;;;;;;;;;;;;;;;;;
2022/05/20 09:06:01;;;;;;;5.05;3.60;;;27.70;99.90;;;;;;5015816;28;20022;-92
2022/05/20 09:09:12;;;;;;;6.97;3.42;;;27.90;99.90;;;;;;4982532;28;20033;-91
2022/05/20 09:16:04;;;;;;;;;;;;;;;;;;;;;
2022/05/20 09:19:52;;;;;;;;;;;;;;;;;;;;;
2022/05/20 09:26:12;;;;;;;6.15;2.75;;;30.20;98.60;;;;;;4976855;28;20065;-92
2022/05/20 09:30:24;;;;;;;;;;;;;;;;;;;;;
2022/05/20 09:57:05;;;;;;;5.13;2.00;;;35.90;68.60;;;;;;4883891;29;20132;-92
2022/05/20 09:59:59;;;;;;;3.72;2.40;;;36.50;64.00;;;;;;4898427;29;20449;-92
2022/05/20 10:07:16;;;;;;;;;;;;;;;;;;;;;
2022/05/20 10:10:20;;;;;;;5.63;2.22;;;38.00;57.30;;;;;;4823763;29;20070;-91
2022/05/20 10:13:04;;;;;;;2.45;2.10;;;38.30;55.20;;;;;;4795768;29;20486;-91
2022/05/20 10:16:03;;;;;;;7.18;2.20;;;38.70;53.00;;;;;;4885392;29;20048;-92
2022/05/20 10:18:50;;;;;;;5.93;2.05;;;38.90;52.40;;;;;;4884716;29;20036;-91
2022/05/20 10:21:53;;;;;;;9.77;2.67;;;39.10;51.10;;;;;;4898770;29;20115;-91
2022/05/20 10:25:09;;;;;;;;;;;;;;;;;;;;;
2022/05/20 10:32:33;;;;;;;6.22;2.60;;;38.90;49.80;;;;;;5032243;22;20119;-88
2022/05/20 10:33:48;;;;;;;4.78;2.25;;;38.60;50.20;;;;;;5054790;28;20040;-89
2022/05/20 10:36:23;;;;;;;4.85;2.15;;;38.20;50.20;;;;;;5053673;28;20029;-88
2022/05/20 10:38:58;;;;;;;8.00;2.30;;;37.90;51.00;;;;;;5049730;28;20083;-90
2022/05/20 10:41:39;;;;;;;7.07;2.90;;;37.50;51.00;;;;;;5029167;28;20079;-91
2022/05/20 10:50:21;;;;;;;6.80;2.70;;;35.80;52.70;;;;;;5055815;28;20076;-92
2022/05/20 10:52:59;;;;;;;5.07;2.05;;;35.10;54.60;;;;;;5043792;28;20021;-92
2022/05/20 10:55:53;;;;;;;7.25;2.80;;;34.70;55.40;;;;;;5036716;28;20407;-91
2022/05/20 10:58:40;;;;;;;6.95;2.95;;;34.10;54.50;;;;;;5038683;28;20087;-92
2022/05/20 11:01:42;;;;;;;3.53;2.50;;;33.50;55.80;;;;;;5037415;28;20033;-93
2022/05/20 11:04:13;;;;;;;4.55;2.55;;;33.00;55.60;;;;;;5036844;28;20043;-91
2022/05/20 11:06:44;;;;;;;;;;;32.60;57.30;;;;;;5038944;28;20085;-92
2022/05/20 11:09:25;;;;;;;5.82;2.70;;;32.50;59.80;;;;;;5032850;28;19905;-92
2022/05/20 11:11:59;;;;;;;6.90;3.07;;;32.30;58.90;;;;;;5045286;28;20025;-91
2022/05/20 11:15:08;;;;;;;8.40;3.35;;;32.20;59.30;;;;;;5046700;28;20340;-92
2022/05/20 11:18:28;;;;;;;4.97;3.10;;;32.00;59.20;;;;;;5046393;28;20077;-92
2022/05/20 11:24:02;;;;;;;4.28;2.45;;;31.50;59.20;;;;;;5068366;28;20051;-90
2022/05/20 11:26:38;;;;;;;7.53;3.10;;;31.30;59.00;;;;;;5041718;28;20021;-91
2022/05/20 11:29:53;;;;;;;4.82;2.92;;;31.10;59.40;;;;;;5033731;28;20054;-92
2022/05/20 11:32:41;;;;;;;5.60;3.05;;;31.10;59.80;;;;;;4997914;28;20033;-92
2022/05/20 11:35:25;;;;;;;4.43;2.95;;;31.00;60.10;;;;;;5026028;28;20025;-92
2022/05/20 11:38:27;;;;;;;6.00;3.42;;;31.00;60.70;;;;;;5033398;28;20024;-93
2022/05/20 11:41:26;;;;;;;4.65;2.97;;;31.10;61.40;;;;;;4973572;28;20025;-94
2022/05/20 11:44:36;;;;;;;2.92;2.40;;;31.20;61.10;;;;;;5052204;28;20088;-94
2022/05/20 11:47:12;;;;;;;7.30;2.90;;;31.20;60.50;;;;;;5033095;28;20040;-96
2022/05/20 11:49:39;;;;;;;6.18;2.90;;;31.10;59.90;;;;;;5041379;28;20026;-94
2022/05/20 11:52:17;;;;;;;6.55;2.83;;;31.00;61.30;;;;;;5047402;28;20017;-94
2022/05/20 11:54:48;;;;;;;5.10;2.60;;;30.90;59.40;;;;;;5046117;28;20094;-94
2022/05/20 11:58:05;;;;;;;7.45;3.17;;;30.90;60.30;;;;;;5050393;28;20017;-96
2022/05/20 12:34:29;;;;;;;7.65;2.70;;;31.90;59.50;;;;;;5048540;28;20518;-90
2022/05/20 12:37:05;;;;;;;6.60;2.72;;;31.90;58.70;;;;;;5030692;28;20025;-90
2022/05/20 12:40:00;;;;;;;4.80;2.90;;;31.90;59.50;;;;;;5041433;28;20108;-89
2022/05/20 12:43:09;;;;;;;8.90;2.75;;;32.00;58.80;;;;;;5032598;28;20068;-91
2022/05/20 12:50:11;;;;;;;5.63;2.70;;;31.90;59.90;;;;;;4968269;28;20077;-89
2022/05/20 12:56:59;;;;;;;6.67;2.63;;;31.70;60.00;;;;;;4899834;29;20529;-90
2022/05/20 13:03:41;;;;;;;6.50;2.53;;;31.40;59.70;;;;;;4903608;29;20104;-90
2022/05/20 13:13:49;;;;;;;4.30;2.13;;;31.20;58.90;;;;;;4861717;29;20526;-90
2022/05/20 13:16:41;;;;;;;10.35;2.38;;;31.20;59.30;;;;;;4821158;29;20065;-89
2022/05/20 22:33:05;;;;;;;11.75;5.43;;;20.00;99.90;;;;;;5068281;22;20044;-89
2022/05/20 22:35:31;;;;;;;13.15;5.00;;;20.00;99.90;;;;;;5031937;28;20037;-89
2022/05/20 22:37:56;;;;;;;10.45;5.05;;;19.90;99.90;;;;;;5036121;28;20115;-89
2022/05/20 22:40:22;;;;;;;6.78;4.30;;;19.90;99.90;;;;;;5053311;28;20063;-88
2022/05/20 22:42:47;;;;;;;10.50;4.63;;;19.90;99.90;;;;;;5040620;28;20108;-88
2022/05/20 22:45:15;;;;;;;10.02;4.32;;;19.80;99.90;;;;;;5047440;28;20511;-88
2022/05/20 22:47:40;;;;;;;8.65;4.55;;;19.90;99.90;;;;;;5035445;28;20041;-88
2022/05/20 22:50:06;;;;;;;5.88;4.10;;;19.80;99.90;;;;;;5030693;28;20029;-88
2022/05/20 22:52:32;;;;;;;9.43;4.53;;;19.80;99.90;;;;;;5035248;28;20017;-88
2022/05/20 22:57:44;;;;;;;9.10;4.60;;;19.90;99.90;;;;;;5051805;28;20051;-88
2022/05/20 23:00:10;;;;;;;9.55;4.50;;;19.80;99.90;;;;;;5031949;28;20452;-87
2022/05/20 23:02:47;;;;;;;6.22;4.13;;;19.80;99.90;;;;;;5050404;28;20457;-88
2022/05/20 23:05:13;;;;;;;4.93;4.43;;;19.80;99.90;;;;;;5031923;28;20075;-88
2022/05/20 23:07:39;;;;;;;8.45;4.75;;;19.80;99.90;;;;;;5046216;28;20074;-87
2022/05/20 23:10:05;;;;;;;8.88;5.00;;;19.80;99.90;;;;;;5037646;28;20485;-87
2022/05/20 23:12:32;;;;;;;9.15;5.05;;;19.80;99.90;;;;;;5055035;28;20023;-87
2022/05/20 23:14:57;;;;;;;5.72;4.80;;;19.70;99.90;;;;;;5043779;28;20120;-87
2022/05/20 23:17:25;;;;;;;9.52;4.60;;;19.70;99.90;;;;;;5045801;28;20511;-86
2022/05/20 23:19:53;;;;;;;8.07;5.10;;;19.70;99.90;;;;;;5035862;28;20083;-88
2022/05/20 23:22:19;;;;;;;10.35;5.15;;;19.70;99.90;;;;;;5035133;28;20119;-88
2022/05/20 23:24:45;;;;;;;9.52;5.60;;;19.70;99.90;;;;;;5054012;28;20055;-88
2022/05/20 23:27:10;;;;;;;12.40;5.43;;;19.70;99.90;;;;;;5052613;28;20032;-89
2022/05/20 23:29:36;;;;;;;8.80;5.18;;;19.70;99.90;;;;;;5039086;28;20068;-88
2022/05/20 23:32:01;;;;;;;13.02;5.38;;;19.70;99.90;;;;;;5019772;28;20485;-87
2022/05/20 23:34:27;;;;;;;7.60;4.25;;;19.70;99.90;;;;;;5033296;28;20037;-87
2022/05/20 23:36:52;;;;;;;7.25;4.57;;;19.70;99.90;;;;;;5024148;28;20044;-88
2022/05/20 23:39:18;;;;;;;7.53;4.72;;;19.60;99.90;;;;;;5045244;28;20492;-87
2022/05/20 23:41:44;;;;;;;6.63;4.35;;;19.60;99.90;;;;;;5039043;28;20047;-88
2022/05/20 23:44:11;;;;;;;13.75;4.60;;;19.60;99.90;;;;;;5051394;28;20090;-88
2022/05/20 23:46:38;;;;;;;5.55;4.13;;;19.50;99.90;;;;;;5040681;28;20021;-88
2022/05/20 23:49:05;;;;;;;10.40;4.30;;;19.50;99.90;;;;;;5039842;28;20110;-88
2022/05/20 23:51:31;;;;;;;10.00;3.90;;;19.50;99.90;;;;;;5040591;28;20036;-88
2022/05/20 23:53:57;;;;;;;5.93;4.07;;;19.50;99.90;;;;;;5031420;28;20033;-87
2022/05/20 23:59:07;;;;;;;6.45;3.85;;;19.40;99.90;;;;;;5049483;28;20040;-88
